OMRKOAKB

Guest
Details From OMRK - RAS AL KHAIMAH INTL
To OAKB - Kabul Intl
Flight Number -
Tags decoded
Created
Modified
Stats Distance 953 nm / 1,765 km
Max Altitude 0 ft / 0 m
Waypoints 6
Social Downloads 0
Likes 0
Share VATSIM

Download

Looking for another format? Having issues loading an existing format? Contact us
Advertisement - Login to hide

Notes

Requested: OMRK DARAX BND PIRAN TAPIS LANNI OAKB Unmatched points: TAPIS

Route

OMRK DARAX BND PIRAN LANNI OAKB

ID Type Via Altitude Latitude Longitude Leg Dist Tot Dist Heading (true) Name
O OMRK APT - 0 ft / 0 m 25.61335˚ 55.93883˚ - 0 nm - RAS AL KHAIMAH INTL
DARAX FIX - 0 ft / 0 m 26.16167˚ 55.88333˚ 33 nm 33 nm 355° / 355° -
BND NDB - 0 ft / 0 m 27.21631˚ 56.36008˚ 68 nm 101 nm 22° / 22° BANDAR ABBASS NDB
PIRAN FIX - 0 ft / 0 m 29.56861˚ 61.13583˚ 289 nm 390 nm 60° / 62° -
LANNI FIX - 0 ft / 0 m 34.43128˚ 69.83779˚ 530 nm 920 nm 54° / 59° -
O OAKB APT - 0 ft / 0 m 34.56587˚ 69.21229˚ 31 nm 952 nm 285° / 284° Kabul Intl

Altitude Profile

Advertisement - Login to hide

Weather


0- 5 10 15 20 25 30 35+ Temperature / ° C

Clouds and Precipitation
Forecast for 2017-12-13 00:00 UTC. Updated 40 minutes ago

Ground ~20,000 ft ~40,000 ft Winds

OMRK

Details ICAO OMRK (RKT)
Name RAS AL KHAIMAH INTL
Region United Arab Emirates
Timezone Asia/Dubai (UTC+4.0)
Stats Elevation 102 ft / 31 m (AMSL)
Location 25.613352° 55.938831°
Runways 1
Magnetic Variation 2.052° E

METAR

OMRK 122200Z 31003KT CAVOK 13/10 Q1018 A3008

Decode

TAF

TAF OMRK 121701Z 1218/1400 12008KT 9999 FEW040 PROB30 TEMPO 1307/1312 10017G27KT 3000 BLDU

Decode

Departure Runways

ID Width Length Bearing (true) Bearing (mag) Surface Threshold Offset Overrun Length
16 148 ft / 45 m 12,391 ft / 3,777 m 164.83° 162.78° Asphalt 0 ft / 0 m 165 ft / 50 m
34 148 ft / 45 m 12,391 ft / 3,777 m 344.84° 342.79° Asphalt 0 ft / 0 m 165 ft / 50 m

OAKB

Details ICAO OAKB (KBL)
Name Kabul Intl
Region Afghanistan
Timezone Asia/Kabul (UTC+4.5)
Stats Elevation 5,877 ft / 1,791 m (AMSL)
Location 34.565875° 69.212289°
Runways 1
Magnetic Variation 3.164° E

METAR

OAKB 122150Z 32008KT 7000 FEW010 BKN025 OVC034 00/M02 Q1019 RESN NOSIG RMK A3011 WHT WHT

Decode

TAF

TAF AMD OAKB 121920Z 1219/1318 VRB02KT 8000 SCT100 TEMPO 1219/1222 3500 -SN BR FEW007 SCT030 OVC050 PROB30 TEMPO 1303/1305 3000 BR BECMG 1305/1307 BKN060 TEMPO 1312/1318 4000 -RASN BR SCT015 BKN030

Decode

Destination Runways

ID Width Length Bearing (true) Bearing (mag) Surface Threshold Offset Overrun Length
11 164 ft / 50 m 11,483 ft / 3,500 m 107.39° 104.23° Asphalt 0 ft / 0 m 144 ft / 44 m
29 164 ft / 50 m 11,483 ft / 3,500 m 287.41° 284.25° Asphalt 0 ft / 0 m 190 ft / 58 m

Approach Navaids

Runway Type Ident Frequency Range Bearing (true) Bearing (mag) Slope Elevation
29 Localiser OAKB 110.50 MHz 18 nm / 33 km 287.33° 284.16° - 5,962 ft / 1,817 m (AMSL)
29 Glidescope OAKB 110.50 MHz 10 nm / 19 km 287.40° 284.24° 3.85° 5,943 ft / 1,811 m (AMSL)

Popular Alternatives